Bernardo de Irigoyen, Argentina
Current Conditions -  °F | °C
As of 4:00 AM on Sunday 26 Oct 2014 (Local Time) from SARI Reporting Station
Clear Clear  
Wind Chill: 70°   Ceiling: Unl
Heat Index: 70°   Visibility: 6mi
Dew Point: 68°   Wind: 5mph
Humidity: 94%   Direction: 20°NNE
Pressure: 29.88"   Gusts: NA
Location:  26.25°S, 53.65°W
Report Text: SARI 260700Z 02004KT CAVOK 21/20 Q1012
Loading
Personal Weather Stations






























Interactive Weather Map
Tropical Storm Tracking
New forecast layout! Learn more

10-Day Weather Forecast

Advertisements
Track Severe Weather on mobile